SVR547 ULLI-URSS
Flight info
| Callsign | SVR547 |
|---|---|
| Flight time | N/A |
| Altitude | 31000 |
| Route | SUGIN1B SUGIN T873 NIRGI DCT OSKAD DCT UPERI DCT OMEZA DCT ABAGI/K0843F330 B105 NIMTA DCT SL DCT LIDUS DCT AST DCT DITEK/K0856F340 DCT GOTIK DCT MEMZA DCT OKOBA DCT VENFO DCT BINOL BINOL1K |
| Aircraft | A321/M-SDE3FGHIRWY/LB1 |
Departure
| Time | N/A |
|---|---|
| Airport | Pulkovo Airport (ULLI) |
Arrival
| Time | 2026-05-06 15:29 |
|---|---|
| Airport | Sochi International Airport (URSS) |
| Time | Latitude | Longitude | Altitude | Speed | Heading |
|---|---|---|---|---|---|
| 2026-05-06 14:08 | 46.45511 | 47.62349 | 32903 ft | 463 kts | 123° |
| 2026-05-06 14:08 | 46.43752 | 47.66270 | 32902 ft | 463 kts | 123° |
| 2026-05-06 14:08 | 46.40232 | 47.74095 | 32906 ft | 463 kts | 123° |
| 2026-05-06 14:09 | 46.36716 | 47.81919 | 32909 ft | 463 kts | 123° |
| 2026-05-06 14:09 | 46.34720 | 47.85568 | 32904 ft | 463 kts | 136° |
| 2026-05-06 14:09 | 46.32158 | 47.88368 | 32908 ft | 463 kts | 151° |
| 2026-05-06 14:10 | 46.29180 | 47.90117 | 32901 ft | 463 kts | 166° |
| 2026-05-06 14:10 | 46.25993 | 47.90770 | 32905 ft | 464 kts | 174° |
| 2026-05-06 14:10 | 46.19538 | 47.91523 | 32889 ft | 466 kts | 175° |
| 2026-05-06 14:11 | 46.13112 | 47.92235 | 32894 ft | 467 kts | 175° |
| 2026-05-06 14:11 | 46.06642 | 47.92975 | 32910 ft | 466 kts | 174° |
| 2026-05-06 14:12 | 46.00192 | 47.93738 | 32923 ft | 465 kts | 174° |
| 2026-05-06 14:12 | 45.93736 | 47.94501 | 32910 ft | 466 kts | 174° |
| 2026-05-06 14:13 | 45.87276 | 47.95257 | 32916 ft | 465 kts | 175° |
| 2026-05-06 14:13 | 45.80873 | 47.96001 | 32919 ft | 464 kts | 175° |
| 2026-05-06 14:14 | 45.74439 | 47.96738 | 32927 ft | 463 kts | 175° |
| 2026-05-06 14:14 | 45.68016 | 47.97470 | 32939 ft | 463 kts | 175° |
| 2026-05-06 14:15 | 45.61598 | 47.98214 | 32910 ft | 465 kts | 175° |
| 2026-05-06 14:15 | 45.55159 | 47.98951 | 33167 ft | 454 kts | 175° |
| 2026-05-06 14:16 | 45.52047 | 47.99301 | 33805 ft | 444 kts | 175° |
| 2026-05-06 14:16 | 45.48999 | 47.99638 | 34348 ft | 435 kts | 175° |
| 2026-05-06 14:16 | 45.46016 | 47.99970 | 34839 ft | 427 kts | 175° |
| 2026-05-06 14:16 | 45.43019 | 48.00313 | 34698 ft | 437 kts | 175° |
| 2026-05-06 14:17 | 45.39957 | 48.00670 | 34518 ft | 446 kts | 175° |
| 2026-05-06 14:17 | 45.36826 | 48.01036 | 34343 ft | 455 kts | 175° |
| 2026-05-06 14:17 | 45.33647 | 48.01406 | 34160 ft | 459 kts | 175° |
| 2026-05-06 14:17 | 45.30496 | 48.01769 | 33978 ft | 461 kts | 175° |
| 2026-05-06 14:18 | 45.24092 | 48.02499 | 33918 ft | 462 kts | 175° |
| 2026-05-06 14:18 | 45.17682 | 48.03219 | 33920 ft | 462 kts | 175° |
| 2026-05-06 14:19 | 45.11266 | 48.03941 | 33918 ft | 462 kts | 175° |
| 2026-05-06 14:19 | 45.08061 | 48.04029 | 33920 ft | 461 kts | 186° |
| 2026-05-06 14:19 | 45.04938 | 48.03025 | 33922 ft | 462 kts | 201° |
| 2026-05-06 14:20 | 45.02097 | 48.00900 | 33922 ft | 463 kts | 216° |
| 2026-05-06 14:20 | 44.99675 | 47.97904 | 33926 ft | 465 kts | 223° |
| 2026-05-06 14:20 | 44.95008 | 47.91655 | 33919 ft | 466 kts | 223° |
| 2026-05-06 14:21 | 44.90304 | 47.85363 | 33924 ft | 466 kts | 223° |
| 2026-05-06 14:21 | 44.85586 | 47.79102 | 33930 ft | 466 kts | 222° |
| 2026-05-06 14:22 | 44.80861 | 47.72860 | 33927 ft | 466 kts | 222° |
| 2026-05-06 14:22 | 44.76565 | 47.66078 | 33934 ft | 467 kts | 240° |
| 2026-05-06 14:23 | 44.73923 | 47.57704 | 33941 ft | 468 kts | 246° |
| 2026-05-06 14:23 | 44.71399 | 47.49248 | 33943 ft | 468 kts | 246° |
| 2026-05-06 14:24 | 44.68872 | 47.40811 | 33945 ft | 468 kts | 246° |
| 2026-05-06 14:24 | 44.66352 | 47.32446 | 33952 ft | 468 kts | 246° |
| 2026-05-06 14:25 | 44.63804 | 47.24053 | 33947 ft | 466 kts | 246° |
| 2026-05-06 14:25 | 44.61242 | 47.15686 | 33955 ft | 466 kts | 246° |
| 2026-05-06 14:26 | 44.58686 | 47.07331 | 33958 ft | 466 kts | 246° |
| 2026-05-06 14:26 | 44.56553 | 47.00370 | 33960 ft | 466 kts | 245° |
| 2026-05-06 14:27 | 44.53989 | 46.92029 | 33964 ft | 466 kts | 246° |
| 2026-05-06 14:27 | 44.51420 | 46.83687 | 33963 ft | 466 kts | 246° |
| 2026-05-06 14:28 | 44.48849 | 46.75367 | 33966 ft | 465 kts | 246° |
| 2026-05-06 14:28 | 44.46266 | 46.67049 | 33970 ft | 466 kts | 245° |
| 2026-05-06 14:29 | 44.43673 | 46.58739 | 33970 ft | 465 kts | 246° |
| 2026-05-06 14:29 | 44.41082 | 46.50438 | 33980 ft | 465 kts | 246° |
| 2026-05-06 14:30 | 44.38508 | 46.42218 | 33984 ft | 465 kts | 246° |
| 2026-05-06 14:30 | 44.35900 | 46.33929 | 33984 ft | 467 kts | 245° |
| 2026-05-06 14:31 | 44.33265 | 46.25603 | 33987 ft | 469 kts | 246° |
| 2026-05-06 14:31 | 44.30632 | 46.17284 | 33993 ft | 468 kts | 246° |
| 2026-05-06 14:32 | 44.28001 | 46.08959 | 33994 ft | 469 kts | 246° |
| 2026-05-06 14:32 | 44.25358 | 46.00654 | 34000 ft | 468 kts | 245° |
| 2026-05-06 14:33 | 44.22701 | 45.92361 | 33999 ft | 468 kts | 245° |
| 2026-05-06 14:33 | 44.20058 | 45.84125 | 34005 ft | 468 kts | 246° |
| 2026-05-06 14:34 | 44.17397 | 45.75841 | 34011 ft | 468 kts | 245° |
| 2026-05-06 14:34 | 44.14737 | 45.67567 | 34010 ft | 468 kts | 245° |
| 2026-05-06 14:35 | 44.12064 | 45.59298 | 34014 ft | 467 kts | 245° |
| 2026-05-06 14:35 | 44.09387 | 45.51049 | 34015 ft | 468 kts | 245° |
| 2026-05-06 14:36 | 44.06705 | 45.42814 | 34015 ft | 467 kts | 245° |
| 2026-05-06 14:36 | 44.04018 | 45.34586 | 34022 ft | 466 kts | 245° |
| 2026-05-06 14:37 | 44.01328 | 45.26395 | 34023 ft | 466 kts | 245° |
| 2026-05-06 14:37 | 43.98643 | 45.18212 | 34024 ft | 465 kts | 245° |
| 2026-05-06 14:38 | 43.95948 | 45.10013 | 34028 ft | 467 kts | 245° |
| 2026-05-06 14:38 | 43.93236 | 45.01805 | 34033 ft | 468 kts | 245° |
| 2026-05-06 14:39 | 43.90526 | 44.93653 | 34031 ft | 468 kts | 245° |
| 2026-05-06 14:39 | 43.87777 | 44.85405 | 34032 ft | 468 kts | 244° |
| 2026-05-06 14:40 | 43.85051 | 44.77248 | 34031 ft | 469 kts | 245° |
| 2026-05-06 14:40 | 43.82307 | 44.69032 | 34033 ft | 471 kts | 245° |
| 2026-05-06 14:41 | 43.79551 | 44.60807 | 34034 ft | 471 kts | 245° |
| 2026-05-06 14:41 | 43.76786 | 44.52584 | 34034 ft | 471 kts | 245° |
| 2026-05-06 14:42 | 43.74030 | 44.44433 | 34035 ft | 471 kts | 244° |
| 2026-05-06 14:42 | 43.71256 | 44.36240 | 34034 ft | 471 kts | 245° |
| 2026-05-06 14:43 | 43.68472 | 44.28051 | 34032 ft | 471 kts | 244° |
| 2026-05-06 14:43 | 43.65676 | 44.19872 | 34033 ft | 471 kts | 245° |
| 2026-05-06 14:44 | 43.63782 | 44.11244 | 34031 ft | 471 kts | 263° |
| 2026-05-06 14:45 | 43.63853 | 43.97687 | 34033 ft | 472 kts | 271° |
| 2026-05-06 14:45 | 43.64074 | 43.88632 | 34027 ft | 472 kts | 271° |
| 2026-05-06 14:46 | 43.64290 | 43.79574 | 34030 ft | 472 kts | 271° |
| 2026-05-06 14:46 | 43.64503 | 43.70521 | 34032 ft | 472 kts | 270° |
| 2026-05-06 14:47 | 43.64710 | 43.61459 | 34032 ft | 472 kts | 271° |
| 2026-05-06 14:47 | 43.64909 | 43.52467 | 34041 ft | 472 kts | 271° |
| 2026-05-06 14:48 | 43.65101 | 43.43401 | 34041 ft | 472 kts | 271° |
| 2026-05-06 14:48 | 43.65291 | 43.34342 | 34040 ft | 473 kts | 271° |
| 2026-05-06 14:49 | 43.65464 | 43.25236 | 34047 ft | 475 kts | 270° |
| 2026-05-06 14:49 | 43.65629 | 43.16114 | 34052 ft | 475 kts | 270° |
| 2026-05-06 14:50 | 43.65795 | 43.06995 | 34061 ft | 475 kts | 271° |
| 2026-05-06 14:50 | 43.65959 | 42.97860 | 34069 ft | 476 kts | 271° |
| 2026-05-06 14:51 | 43.66115 | 42.88743 | 34066 ft | 475 kts | 270° |
| 2026-05-06 14:51 | 43.66258 | 42.79590 | 34080 ft | 477 kts | 270° |
| 2026-05-06 14:52 | 43.66396 | 42.70429 | 34077 ft | 477 kts | 270° |
| 2026-05-06 14:52 | 43.66529 | 42.61255 | 34088 ft | 477 kts | 271° |
| 2026-05-06 14:53 | 43.66651 | 42.52085 | 34087 ft | 477 kts | 270° |
| 2026-05-06 14:53 | 43.66781 | 42.42973 | 34089 ft | 477 kts | 271° |
| 2026-05-06 14:54 | 43.66963 | 42.33798 | 34106 ft | 477 kts | 271° |
| 2026-05-06 14:54 | 43.67145 | 42.24627 | 34110 ft | 477 kts | 271° |
| 2026-05-06 14:55 | 43.67299 | 42.15447 | 34112 ft | 477 kts | 271° |
| 2026-05-06 14:55 | 43.67439 | 42.06277 | 34111 ft | 477 kts | 271° |
| 2026-05-06 14:56 | 43.67582 | 41.97115 | 34114 ft | 477 kts | 271° |
| 2026-05-06 14:56 | 43.67716 | 41.87938 | 34111 ft | 478 kts | 271° |
| 2026-05-06 14:57 | 43.67843 | 41.78749 | 34103 ft | 479 kts | 270° |
| 2026-05-06 14:57 | 43.67958 | 41.69603 | 34107 ft | 480 kts | 270° |
| 2026-05-06 14:58 | 43.68071 | 41.60383 | 34116 ft | 480 kts | 270° |
| 2026-05-06 14:58 | 43.68176 | 41.51188 | 34100 ft | 473 kts | 270° |
| 2026-05-06 14:59 | 43.68268 | 41.42155 | 34107 ft | 469 kts | 270° |
| 2026-05-06 14:59 | 43.68307 | 41.37661 | 33918 ft | 465 kts | 270° |
| 2026-05-06 14:59 | 43.68345 | 41.33234 | 33638 ft | 456 kts | 270° |
| 2026-05-06 14:59 | 43.68385 | 41.28893 | 33372 ft | 447 kts | 270° |
| 2026-05-06 15:00 | 43.68424 | 41.24631 | 33012 ft | 441 kts | 270° |
| 2026-05-06 15:00 | 43.68460 | 41.20405 | 32522 ft | 438 kts | 270° |
| 2026-05-06 15:00 | 43.68493 | 41.16215 | 32037 ft | 435 kts | 271° |
| 2026-05-06 15:00 | 43.68525 | 41.12044 | 31566 ft | 432 kts | 271° |
| 2026-05-06 15:01 | 43.68556 | 41.07912 | 31100 ft | 429 kts | 271° |
| 2026-05-06 15:01 | 43.68587 | 41.03807 | 30647 ft | 426 kts | 271° |
| 2026-05-06 15:01 | 43.68619 | 40.99728 | 30194 ft | 423 kts | 271° |
| 2026-05-06 15:01 | 43.68646 | 40.95681 | 29700 ft | 419 kts | 271° |
| 2026-05-06 15:02 | 43.68669 | 40.91680 | 29276 ft | 414 kts | 271° |
| 2026-05-06 15:02 | 43.68689 | 40.87724 | 28858 ft | 409 kts | 271° |
| 2026-05-06 15:02 | 43.68705 | 40.83818 | 28454 ft | 405 kts | 271° |
| 2026-05-06 15:02 | 43.68720 | 40.79945 | 28057 ft | 401 kts | 271° |
| 2026-05-06 15:03 | 43.68735 | 40.76111 | 27641 ft | 398 kts | 271° |
| 2026-05-06 15:03 | 43.68750 | 40.72305 | 27236 ft | 395 kts | 270° |
| 2026-05-06 15:03 | 43.68765 | 40.68523 | 26828 ft | 392 kts | 270° |
| 2026-05-06 15:03 | 43.68779 | 40.64812 | 26412 ft | 391 kts | 270° |
| 2026-05-06 15:04 | 43.68791 | 40.61022 | 26005 ft | 389 kts | 270° |
| 2026-05-06 15:04 | 43.68800 | 40.57352 | 25586 ft | 387 kts | 270° |
| 2026-05-06 15:04 | 43.68811 | 40.53637 | 25161 ft | 385 kts | 270° |
| 2026-05-06 15:04 | 43.68822 | 40.49945 | 24729 ft | 384 kts | 270° |
| 2026-05-06 15:05 | 43.68831 | 40.46254 | 24300 ft | 383 kts | 270° |
| 2026-05-06 15:05 | 43.68837 | 40.42573 | 23863 ft | 382 kts | 270° |
| 2026-05-06 15:05 | 43.68841 | 40.38893 | 23387 ft | 381 kts | 270° |
| 2026-05-06 15:05 | 43.68844 | 40.35243 | 22950 ft | 378 kts | 270° |
| 2026-05-06 15:06 | 43.68842 | 40.31631 | 22564 ft | 373 kts | 270° |
| 2026-05-06 15:06 | 43.68841 | 40.28064 | 22137 ft | 370 kts | 270° |
| 2026-05-06 15:06 | 43.68841 | 40.24523 | 21705 ft | 367 kts | 270° |
| 2026-05-06 15:06 | 43.68842 | 40.21000 | 21272 ft | 364 kts | 271° |
| 2026-05-06 15:07 | 43.68806 | 40.17513 | 20854 ft | 362 kts | 264° |
| 2026-05-06 15:07 | 43.68254 | 40.14194 | 20424 ft | 360 kts | 248° |
| 2026-05-06 15:07 | 43.67025 | 40.11208 | 20000 ft | 357 kts | 231° |
| 2026-05-06 15:07 | 43.65245 | 40.08856 | 19596 ft | 353 kts | 214° |
| 2026-05-06 15:08 | 43.63096 | 40.07255 | 19203 ft | 350 kts | 204° |
| 2026-05-06 15:08 | 43.60885 | 40.05877 | 18806 ft | 348 kts | 204° |
| 2026-05-06 15:08 | 43.58684 | 40.04499 | 18405 ft | 346 kts | 204° |
| 2026-05-06 15:08 | 43.56503 | 40.03130 | 18002 ft | 343 kts | 204° |
| 2026-05-06 15:09 | 43.54348 | 40.01777 | 17634 ft | 338 kts | 204° |
| 2026-05-06 15:09 | 43.52218 | 40.00442 | 17272 ft | 334 kts | 204° |
| 2026-05-06 15:09 | 43.50116 | 39.99127 | 16919 ft | 330 kts | 204° |
| 2026-05-06 15:09 | 43.48034 | 39.97827 | 16563 ft | 327 kts | 204° |
| 2026-05-06 15:10 | 43.45973 | 39.96542 | 16217 ft | 324 kts | 203° |
| 2026-05-06 15:10 | 43.43867 | 39.95480 | 15754 ft | 324 kts | 198° |
| 2026-05-06 15:10 | 43.41718 | 39.94500 | 15235 ft | 327 kts | 197° |
| 2026-05-06 15:10 | 43.39555 | 39.93518 | 14717 ft | 329 kts | 198° |
| 2026-05-06 15:11 | 43.37370 | 39.92529 | 14214 ft | 331 kts | 197° |
| 2026-05-06 15:11 | 43.35191 | 39.91540 | 13645 ft | 327 kts | 198° |
| 2026-05-06 15:11 | 43.33045 | 39.90562 | 13035 ft | 323 kts | 198° |
| 2026-05-06 15:11 | 43.30926 | 39.89597 | 12426 ft | 319 kts | 198° |
| 2026-05-06 15:12 | 43.28835 | 39.88645 | 11870 ft | 315 kts | 198° |
| 2026-05-06 15:12 | 43.26767 | 39.87704 | 11327 ft | 311 kts | 198° |
| 2026-05-06 15:12 | 43.24731 | 39.86777 | 10830 ft | 306 kts | 198° |
| 2026-05-06 15:12 | 43.22728 | 39.85867 | 10373 ft | 300 kts | 198° |
| 2026-05-06 15:13 | 43.20761 | 39.84975 | 9901 ft | 296 kts | 199° |
| 2026-05-06 15:13 | 43.19470 | 39.84391 | 9569 ft | 293 kts | 199° |
| 2026-05-06 15:13 | 43.16928 | 39.83245 | 8913 ft | 287 kts | 199° |
| 2026-05-06 15:13 | 43.15041 | 39.82397 | 8461 ft | 283 kts | 199° |
| 2026-05-06 15:14 | 43.13188 | 39.81562 | 8027 ft | 278 kts | 199° |
| 2026-05-06 15:14 | 43.11367 | 39.80742 | 7593 ft | 273 kts | 199° |
| 2026-05-06 15:14 | 43.09572 | 39.79934 | 7176 ft | 269 kts | 199° |
| 2026-05-06 15:14 | 43.08370 | 39.79391 | 6946 ft | 269 kts | 199° |
| 2026-05-06 15:15 | 43.06613 | 39.78595 | 6596 ft | 269 kts | 199° |
| 2026-05-06 15:15 | 43.04834 | 39.77790 | 6230 ft | 270 kts | 199° |
| 2026-05-06 15:15 | 43.03056 | 39.76985 | 6005 ft | 264 kts | 199° |
| 2026-05-06 15:15 | 43.01353 | 39.76215 | 6004 ft | 258 kts | 199° |
| 2026-05-06 15:16 | 42.99643 | 39.75443 | 6003 ft | 258 kts | 199° |
| 2026-05-06 15:16 | 42.97941 | 39.74671 | 6011 ft | 258 kts | 199° |
| 2026-05-06 15:16 | 42.96239 | 39.73901 | 6004 ft | 258 kts | 199° |
| 2026-05-06 15:16 | 42.94545 | 39.73107 | 6013 ft | 257 kts | 205° |
| 2026-05-06 15:17 | 42.93096 | 39.71735 | 6003 ft | 254 kts | 230° |
| 2026-05-06 15:17 | 42.92216 | 39.69686 | 6005 ft | 251 kts | 256° |
| 2026-05-06 15:17 | 42.92056 | 39.67349 | 6013 ft | 247 kts | 281° |
| 2026-05-06 15:17 | 42.92616 | 39.65170 | 6004 ft | 244 kts | 304° |
| 2026-05-06 15:18 | 42.93773 | 39.63509 | 6004 ft | 242 kts | 328° |
| 2026-05-06 15:18 | 42.95315 | 39.62639 | 6010 ft | 242 kts | 351° |
| 2026-05-06 15:18 | 42.96990 | 39.62701 | 6007 ft | 243 kts | 14° |
| 2026-05-06 15:18 | 42.98557 | 39.63590 | 6014 ft | 245 kts | 25° |
| 2026-05-06 15:19 | 43.00098 | 39.64598 | 6008 ft | 246 kts | 24° |
| 2026-05-06 15:19 | 43.01641 | 39.65600 | 6011 ft | 246 kts | 24° |
| 2026-05-06 15:19 | 43.03185 | 39.66603 | 5934 ft | 247 kts | 24° |
| 2026-05-06 15:19 | 43.04727 | 39.67602 | 5720 ft | 244 kts | 24° |
| 2026-05-06 15:20 | 43.06234 | 39.68580 | 5565 ft | 235 kts | 24° |
| 2026-05-06 15:20 | 43.07665 | 39.69515 | 5464 ft | 222 kts | 24° |
| 2026-05-06 15:20 | 43.09007 | 39.70395 | 5290 ft | 213 kts | 24° |
| 2026-05-06 15:20 | 43.10350 | 39.71271 | 4993 ft | 211 kts | 24° |
| 2026-05-06 15:21 | 43.11672 | 39.72131 | 4760 ft | 210 kts | 24° |
| 2026-05-06 15:21 | 43.12977 | 39.72980 | 4561 ft | 210 kts | 24° |
| 2026-05-06 15:21 | 43.14297 | 39.73841 | 4362 ft | 210 kts | 24° |
| 2026-05-06 15:21 | 43.15615 | 39.74700 | 4182 ft | 210 kts | 24° |
| 2026-05-06 15:22 | 43.16934 | 39.75560 | 3994 ft | 210 kts | 25° |
| 2026-05-06 15:22 | 43.18254 | 39.76422 | 3809 ft | 209 kts | 25° |
| 2026-05-06 15:22 | 43.19571 | 39.77283 | 3620 ft | 209 kts | 25° |
| 2026-05-06 15:22 | 43.20905 | 39.78078 | 3435 ft | 209 kts | 17° |
| 2026-05-06 15:23 | 43.22272 | 39.78745 | 3240 ft | 209 kts | 24° |
| 2026-05-06 15:23 | 43.23538 | 39.79589 | 3084 ft | 199 kts | 27° |
| 2026-05-06 15:23 | 43.24715 | 39.80451 | 2982 ft | 184 kts | 28° |
| 2026-05-06 15:23 | 43.25813 | 39.81268 | 2793 ft | 177 kts | 28° |
| 2026-05-06 15:24 | 43.26887 | 39.82069 | 2578 ft | 175 kts | 28° |
| 2026-05-06 15:24 | 43.27951 | 39.82863 | 2425 ft | 173 kts | 28° |
| 2026-05-06 15:24 | 43.29013 | 39.83656 | 2375 ft | 174 kts | 28° |
| 2026-05-06 15:24 | 43.30077 | 39.84454 | 2315 ft | 176 kts | 28° |
| 2026-05-06 15:25 | 43.31146 | 39.85251 | 2141 ft | 174 kts | 28° |
| 2026-05-06 15:25 | 43.32205 | 39.86042 | 2049 ft | 173 kts | 27° |
| 2026-05-06 15:25 | 43.33263 | 39.86833 | 1979 ft | 173 kts | 27° |
| 2026-05-06 15:25 | 43.34322 | 39.87626 | 1908 ft | 174 kts | 28° |
| 2026-05-06 15:26 | 43.35374 | 39.88413 | 1754 ft | 166 kts | 28° |
| 2026-05-06 15:26 | 43.36348 | 39.89143 | 1548 ft | 156 kts | 28° |
| 2026-05-06 15:26 | 43.37292 | 39.89850 | 1351 ft | 153 kts | 28° |
| 2026-05-06 15:26 | 43.38228 | 39.90551 | 1162 ft | 153 kts | 27° |
| 2026-05-06 15:27 | 43.39160 | 39.91250 | 968 ft | 152 kts | 26° |
| 2026-05-06 15:27 | 43.40093 | 39.91949 | 798 ft | 152 kts | 26° |
| 2026-05-06 15:27 | 43.41025 | 39.92643 | 634 ft | 153 kts | 27° |
| 2026-05-06 15:27 | 43.41958 | 39.93335 | 419 ft | 152 kts | 26° |
| 2026-05-06 15:28 | 43.42878 | 39.94032 | 241 ft | 151 kts | 27° |
| 2026-05-06 15:28 | 43.43791 | 39.94728 | 76 ft | 144 kts | 26° |
| 2026-05-06 15:28 | 43.44556 | 39.95300 | 86 ft | 102 kts | 29° |
| 2026-05-06 15:28 | 43.45026 | 39.95657 | 93 ft | 52 kts | 28° |
| 2026-05-06 15:29 | 43.45210 | 39.95797 | 92 ft | 15 kts | 29° |
| 2026-05-06 15:29 | 43.45282 | 39.95844 | 96 ft | 8 kts | 359° |
| 2026-05-06 15:29 | 43.45290 | 39.95787 | 93 ft | 8 kts | 245° |
| 2026-05-06 15:29 | 43.45259 | 39.95716 | 91 ft | 10 kts | 239° |
| 2026-05-06 15:30 | 43.45220 | 39.95627 | 92 ft | 11 kts | 239° |
| 2026-05-06 15:30 | 43.45186 | 39.95554 | 93 ft | 9 kts | 237° |
| 2026-05-06 15:30 | 43.45150 | 39.95483 | 94 ft | 10 kts | 235° |
| 2026-05-06 15:30 | 43.45108 | 39.95398 | 93 ft | 12 kts | 236° |
| 2026-05-06 15:31 | 43.45075 | 39.95307 | 90 ft | 11 kts | 245° |
| 2026-05-06 15:31 | 43.45038 | 39.95194 | 90 ft | 13 kts | 245° |
| 2026-05-06 15:31 | 43.45003 | 39.95095 | 85 ft | 10 kts | 238° |
| 2026-05-06 15:32 | 43.44923 | 39.94923 | 68 ft | 13 kts | 245° |
| 2026-05-06 15:32 | 43.44881 | 39.94796 | 64 ft | 13 kts | 245° |
| 2026-05-06 15:32 | 43.44844 | 39.94688 | 71 ft | 11 kts | 245° |
| 2026-05-06 15:32 | 43.44812 | 39.94596 | 67 ft | 10 kts | 245° |
| 2026-05-06 15:33 | 43.44783 | 39.94510 | 72 ft | 10 kts | 244° |
| 2026-05-06 15:33 | 43.44760 | 39.94445 | 68 ft | 2 kts | 245° |
| 2026-05-06 15:33 | 43.44758 | 39.94425 | 66 ft | 2 kts | 274° |
| 2026-05-06 15:33 | 43.44769 | 39.94405 | 70 ft | 3 kts | 316° |
| 2026-05-06 15:34 | 43.44791 | 39.94388 | 70 ft | 4 kts | 333° |
| 2026-05-06 15:34 | 43.44809 | 39.94376 | 65 ft | 0 kts | 334° |